sensor_id;sensor_type;location;lat;lon;timestamp;P1;durP1;ratioP1;P2;durP2;ratioP2
17796;SDS011;55596;53.554;9.916;2023-04-24T00:01:18;10.40;;;8.83;;
17796;SDS011;55596;53.554;9.916;2023-04-24T00:03:45;9.63;;;8.63;;
17796;SDS011;55596;53.554;9.916;2023-04-24T00:06:15;9.90;;;8.97;;
17796;SDS011;55596;53.554;9.916;2023-04-24T00:08:44;10.43;;;9.33;;
17796;SDS011;55596;53.554;9.916;2023-04-24T00:11:12;10.37;;;8.67;;
17796;SDS011;55596;53.554;9.916;2023-04-24T00:13:39;10.47;;;9.47;;
17796;SDS011;55596;53.554;9.916;2023-04-24T00:16:06;10.13;;;9.20;;
17796;SDS011;55596;53.554;9.916;2023-04-24T00:18:36;9.20;;;8.30;;
17796;SDS011;55596;53.554;9.916;2023-04-24T00:21:04;9.83;;;8.83;;
17796;SDS011;55596;53.554;9.916;2023-04-24T00:23:32;9.67;;;8.77;;
17796;SDS011;55596;53.554;9.916;2023-04-24T00:25:59;10.67;;;9.57;;
17796;SDS011;55596;53.554;9.916;2023-04-24T00:28:27;10.60;;;8.37;;
17796;SDS011;55596;53.554;9.916;2023-04-24T00:30:54;12.27;;;9.77;;
17796;SDS011;55596;53.554;9.916;2023-04-24T00:33:21;10.20;;;9.20;;
17796;SDS011;55596;53.554;9.916;2023-04-24T00:35:50;11.00;;;8.70;;
17796;SDS011;55596;53.554;9.916;2023-04-24T00:38:17;10.90;;;9.83;;
17796;SDS011;55596;53.554;9.916;2023-04-24T00:40:45;11.60;;;9.90;;
17796;SDS011;55596;53.554;9.916;2023-04-24T00:43:16;11.83;;;9.90;;
17796;SDS011;55596;53.554;9.916;2023-04-24T00:45:46;15.13;;;9.90;;
17796;SDS011;55596;53.554;9.916;2023-04-24T00:48:13;11.53;;;10.43;;
17796;SDS011;55596;53.554;9.916;2023-04-24T00:50:41;12.57;;;10.13;;
17796;SDS011;55596;53.554;9.916;2023-04-24T00:53:10;13.17;;;11.37;;
17796;SDS011;55596;53.554;9.916;2023-04-24T00:55:37;11.40;;;10.30;;
17796;SDS011;55596;53.554;9.916;2023-04-24T00:58:04;11.43;;;10.33;;
17796;SDS011;55596;53.554;9.916;2023-04-24T01:00:32;11.37;;;10.20;;
17796;SDS011;55596;53.554;9.916;2023-04-24T01:02:59;12.57;;;11.37;;
17796;SDS011;55596;53.554;9.916;2023-04-24T01:05:28;12.90;;;10.13;;
17796;SDS011;55596;53.554;9.916;2023-04-24T01:07:55;10.07;;;9.10;;
17796;SDS011;55596;53.554;9.916;2023-04-24T01:10:24;10.60;;;9.60;;
17796;SDS011;55596;53.554;9.916;2023-04-24T01:12:52;10.20;;;8.97;;
17796;SDS011;55596;53.554;9.916;2023-04-24T01:15:20;10.20;;;8.83;;
17796;SDS011;55596;53.554;9.916;2023-04-24T01:17:47;9.20;;;8.03;;
17796;SDS011;55596;53.554;9.916;2023-04-24T01:20:15;8.57;;;7.70;;
17796;SDS011;55596;53.554;9.916;2023-04-24T01:22:44;8.63;;;7.73;;
17796;SDS011;55596;53.554;9.916;2023-04-24T01:25:11;8.00;;;7.20;;
17796;SDS011;55596;53.554;9.916;2023-04-24T01:27:38;10.33;;;7.37;;
17796;SDS011;55596;53.554;9.916;2023-04-24T01:30:06;8.13;;;7.33;;
17796;SDS011;55596;53.554;9.916;2023-04-24T01:32:33;6.93;;;6.10;;
17796;SDS011;55596;53.554;9.916;2023-04-24T01:35:01;6.80;;;5.90;;
17796;SDS011;55596;53.554;9.916;2023-04-24T01:37:28;6.90;;;6.20;;
17796;SDS011;55596;53.554;9.916;2023-04-24T01:39:58;6.30;;;5.70;;
17796;SDS011;55596;53.554;9.916;2023-04-24T01:42:25;6.33;;;5.73;;
17796;SDS011;55596;53.554;9.916;2023-04-24T01:44:53;5.67;;;5.07;;
17796;SDS011;55596;53.554;9.916;2023-04-24T01:47:20;5.40;;;4.90;;
17796;SDS011;55596;53.554;9.916;2023-04-24T01:49:48;5.37;;;4.40;;
17796;SDS011;55596;53.554;9.916;2023-04-24T01:52:15;4.47;;;3.80;;
17796;SDS011;55596;53.554;9.916;2023-04-24T01:54:42;5.00;;;3.80;;
17796;SDS011;55596;53.554;9.916;2023-04-24T01:57:11;4.47;;;3.50;;
17796;SDS011;55596;53.554;9.916;2023-04-24T01:59:38;5.03;;;3.53;;
17796;SDS011;55596;53.554;9.916;2023-04-24T02:02:05;6.87;;;4.00;;
17796;SDS011;55596;53.554;9.916;2023-04-24T02:04:33;5.13;;;3.93;;
17796;SDS011;55596;53.554;9.916;2023-04-24T02:07:00;6.47;;;4.07;;
17796;SDS011;55596;53.554;9.916;2023-04-24T02:09:27;5.90;;;3.03;;
17796;SDS011;55596;53.554;9.916;2023-04-24T02:11:54;3.00;;;2.30;;
17796;SDS011;55596;53.554;9.916;2023-04-24T02:14:23;2.20;;;2.00;;
17796;SDS011;55596;53.554;9.916;2023-04-24T02:16:50;4.10;;;1.87;;
17796;SDS011;55596;53.554;9.916;2023-04-24T02:19:18;2.47;;;1.70;;
17796;SDS011;55596;53.554;9.916;2023-04-24T02:21:45;2.77;;;1.70;;
17796;SDS011;55596;53.554;9.916;2023-04-24T02:24:12;1.87;;;1.73;;
17796;SDS011;55596;53.554;9.916;2023-04-24T02:26:43;2.23;;;1.93;;
17796;SDS011;55596;53.554;9.916;2023-04-24T02:29:10;3.43;;;2.40;;
17796;SDS011;55596;53.554;9.916;2023-04-24T02:31:38;2.80;;;2.00;;
17796;SDS011;55596;53.554;9.916;2023-04-24T02:34:06;3.83;;;2.80;;
17796;SDS011;55596;53.554;9.916;2023-04-24T02:36:33;4.60;;;2.90;;
17796;SDS011;55596;53.554;9.916;2023-04-24T02:39:00;4.07;;;3.27;;
17796;SDS011;55596;53.554;9.916;2023-04-24T02:41:28;2.80;;;2.20;;
17796;SDS011;55596;53.554;9.916;2023-04-24T02:43:57;4.20;;;2.30;;
17796;SDS011;55596;53.554;9.916;2023-04-24T02:46:24;4.17;;;2.50;;
17796;SDS011;55596;53.554;9.916;2023-04-24T02:48:53;3.37;;;2.53;;
17796;SDS011;55596;53.554;9.916;2023-04-24T02:51:20;3.27;;;2.70;;
17796;SDS011;55596;53.554;9.916;2023-04-24T02:53:48;3.47;;;2.70;;
17796;SDS011;55596;53.554;9.916;2023-04-24T02:56:15;2.90;;;2.70;;
17796;SDS011;55596;53.554;9.916;2023-04-24T02:58:42;2.60;;;2.40;;
17796;SDS011;55596;53.554;9.916;2023-04-24T03:01:09;6.67;;;2.93;;
17796;SDS011;55596;53.554;9.916;2023-04-24T03:03:37;4.13;;;2.30;;
17796;SDS011;55596;53.554;9.916;2023-04-24T03:06:06;3.10;;;2.80;;
17796;SDS011;55596;53.554;9.916;2023-04-24T03:08:33;3.77;;;2.67;;
17796;SDS011;55596;53.554;9.916;2023-04-24T03:11:00;3.17;;;2.33;;
17796;SDS011;55596;53.554;9.916;2023-04-24T03:13:27;3.13;;;2.40;;
17796;SDS011;55596;53.554;9.916;2023-04-24T03:15:54;3.57;;;2.60;;
17796;SDS011;55596;53.554;9.916;2023-04-24T03:18:22;3.60;;;2.20;;
17796;SDS011;55596;53.554;9.916;2023-04-24T03:20:49;3.17;;;2.30;;
17796;SDS011;55596;53.554;9.916;2023-04-24T03:23:17;4.73;;;2.73;;
17796;SDS011;55596;53.554;9.916;2023-04-24T03:25:44;7.07;;;3.80;;
17796;SDS011;55596;53.554;9.916;2023-04-24T03:28:15;6.27;;;3.93;;
17796;SDS011;55596;53.554;9.916;2023-04-24T03:30:42;4.60;;;3.83;;
17796;SDS011;55596;53.554;9.916;2023-04-24T03:33:09;5.20;;;2.50;;
17796;SDS011;55596;53.554;9.916;2023-04-24T03:35:37;4.80;;;2.57;;
17796;SDS011;55596;53.554;9.916;2023-04-24T03:38:04;2.93;;;2.10;;
17796;SDS011;55596;53.554;9.916;2023-04-24T03:40:33;2.90;;;2.30;;
17796;SDS011;55596;53.554;9.916;2023-04-24T03:43:00;3.40;;;2.20;;
17796;SDS011;55596;53.554;9.916;2023-04-24T03:45:28;4.37;;;2.60;;
17796;SDS011;55596;53.554;9.916;2023-04-24T03:47:55;3.57;;;2.03;;
17796;SDS011;55596;53.554;9.916;2023-04-24T03:50:22;2.63;;;2.30;;
17796;SDS011;55596;53.554;9.916;2023-04-24T03:52:51;3.27;;;2.20;;
17796;SDS011;55596;53.554;9.916;2023-04-24T03:55:18;1.97;;;1.60;;
17796;SDS011;55596;53.554;9.916;2023-04-24T03:57:47;2.27;;;1.77;;
17796;SDS011;55596;53.554;9.916;2023-04-24T04:00:14;1.77;;;1.67;;
17796;SDS011;55596;53.554;9.916;2023-04-24T04:02:42;1.60;;;1.50;;
17796;SDS011;55596;53.554;9.916;2023-04-24T04:05:09;2.87;;;1.70;;
17796;SDS011;55596;53.554;9.916;2023-04-24T04:07:36;1.83;;;1.60;;
17796;SDS011;55596;53.554;9.916;2023-04-24T04:10:04;4.57;;;2.60;;
17796;SDS011;55596;53.554;9.916;2023-04-24T04:12:32;3.73;;;2.40;;
17796;SDS011;55596;53.554;9.916;2023-04-24T04:15:00;5.17;;;2.73;;
17796;SDS011;55596;53.554;9.916;2023-04-24T04:17:28;4.80;;;2.60;;
17796;SDS011;55596;53.554;9.916;2023-04-24T04:19:55;3.60;;;1.83;;
17796;SDS011;55596;53.554;9.916;2023-04-24T04:22:23;2.93;;;2.00;;
17796;SDS011;55596;53.554;9.916;2023-04-24T04:24:50;2.77;;;1.53;;
17796;SDS011;55596;53.554;9.916;2023-04-24T04:27:17;1.67;;;1.40;;
17796;SDS011;55596;53.554;9.916;2023-04-24T04:29:46;2.93;;;1.37;;
17796;SDS011;55596;53.554;9.916;2023-04-24T04:32:15;1.20;;;1.10;;
17796;SDS011;55596;53.554;9.916;2023-04-24T04:34:42;1.80;;;1.20;;
17796;SDS011;55596;53.554;9.916;2023-04-24T04:37:10;1.40;;;1.30;;
17796;SDS011;55596;53.554;9.916;2023-04-24T04:39:37;1.37;;;1.27;;
17796;SDS011;55596;53.554;9.916;2023-04-24T04:42:05;3.07;;;1.40;;
17796;SDS011;55596;53.554;9.916;2023-04-24T04:44:32;2.13;;;1.20;;
17796;SDS011;55596;53.554;9.916;2023-04-24T04:47:01;2.50;;;1.37;;
17796;SDS011;55596;53.554;9.916;2023-04-24T04:49:31;1.63;;;1.30;;
17796;SDS011;55596;53.554;9.916;2023-04-24T04:51:59;1.77;;;1.40;;
17796;SDS011;55596;53.554;9.916;2023-04-24T04:54:26;3.57;;;1.67;;
17796;SDS011;55596;53.554;9.916;2023-04-24T04:56:54;3.33;;;1.53;;
17796;SDS011;55596;53.554;9.916;2023-04-24T04:59:22;1.90;;;1.70;;
17796;SDS011;55596;53.554;9.916;2023-04-24T05:01:49;3.03;;;1.70;;
17796;SDS011;55596;53.554;9.916;2023-04-24T05:04:17;3.80;;;1.77;;
17796;SDS011;55596;53.554;9.916;2023-04-24T05:06:45;4.57;;;2.40;;
17796;SDS011;55596;53.554;9.916;2023-04-24T05:09:13;2.87;;;2.20;;
17796;SDS011;55596;53.554;9.916;2023-04-24T05:11:41;4.10;;;2.17;;
17796;SDS011;55596;53.554;9.916;2023-04-24T05:14:08;5.20;;;2.67;;
17796;SDS011;55596;53.554;9.916;2023-04-24T05:16:35;3.60;;;2.33;;
17796;SDS011;55596;53.554;9.916;2023-04-24T05:19:03;4.80;;;2.40;;
17796;SDS011;55596;53.554;9.916;2023-04-24T05:21:30;5.70;;;2.70;;
17796;SDS011;55596;53.554;9.916;2023-04-24T05:23:59;8.27;;;2.83;;
17796;SDS011;55596;53.554;9.916;2023-04-24T05:26:26;4.90;;;2.33;;
17796;SDS011;55596;53.554;9.916;2023-04-24T05:28:53;4.27;;;1.70;;
17796;SDS011;55596;53.554;9.916;2023-04-24T05:31:20;5.27;;;1.97;;
17796;SDS011;55596;53.554;9.916;2023-04-24T05:33:48;4.40;;;1.30;;
17796;SDS011;55596;53.554;9.916;2023-04-24T05:36:15;3.07;;;1.80;;
17796;SDS011;55596;53.554;9.916;2023-04-24T05:38:42;5.90;;;1.90;;
17796;SDS011;55596;53.554;9.916;2023-04-24T05:41:11;4.33;;;1.90;;
17796;SDS011;55596;53.554;9.916;2023-04-24T05:43:38;4.27;;;1.60;;
17796;SDS011;55596;53.554;9.916;2023-04-24T05:46:06;1.77;;;1.20;;
17796;SDS011;55596;53.554;9.916;2023-04-24T05:48:33;2.80;;;1.67;;
17796;SDS011;55596;53.554;9.916;2023-04-24T05:51:00;2.53;;;1.30;;
17796;SDS011;55596;53.554;9.916;2023-04-24T05:53:28;2.43;;;1.30;;
17796;SDS011;55596;53.554;9.916;2023-04-24T05:55:55;3.60;;;1.30;;
17796;SDS011;55596;53.554;9.916;2023-04-24T05:58:24;2.10;;;1.10;;
17796;SDS011;55596;53.554;9.916;2023-04-24T06:00:51;1.93;;;1.00;;
17796;SDS011;55596;53.554;9.916;2023-04-24T06:03:18;1.20;;;1.00;;
17796;SDS011;55596;53.554;9.916;2023-04-24T06:05:46;1.27;;;1.00;;
17796;SDS011;55596;53.554;9.916;2023-04-24T06:08:13;1.30;;;0.90;;
17796;SDS011;55596;53.554;9.916;2023-04-24T06:10:40;1.97;;;1.27;;
17796;SDS011;55596;53.554;9.916;2023-04-24T06:13:07;2.10;;;1.30;;
17796;SDS011;55596;53.554;9.916;2023-04-24T06:15:36;0.93;;;0.93;;
17796;SDS011;55596;53.554;9.916;2023-04-24T06:18:04;2.27;;;1.30;;
17796;SDS011;55596;53.554;9.916;2023-04-24T06:20:31;3.43;;;1.10;;
17796;SDS011;55596;53.554;9.916;2023-04-24T06:22:58;1.90;;;1.00;;
17796;SDS011;55596;53.554;9.916;2023-04-24T06:25:26;1.20;;;1.10;;
17796;SDS011;55596;53.554;9.916;2023-04-24T06:27:53;1.33;;;1.10;;
17796;SDS011;55596;53.554;9.916;2023-04-24T06:30:21;1.33;;;1.07;;
17796;SDS011;55596;53.554;9.916;2023-04-24T06:32:50;2.80;;;1.30;;
17796;SDS011;55596;53.554;9.916;2023-04-24T06:35:17;7.53;;;1.43;;
17796;SDS011;55596;53.554;9.916;2023-04-24T06:37:44;2.80;;;1.40;;
17796;SDS011;55596;53.554;9.916;2023-04-24T06:40:12;1.90;;;1.53;;
17796;SDS011;55596;53.554;9.916;2023-04-24T06:42:39;1.63;;;1.30;;
17796;SDS011;55596;53.554;9.916;2023-04-24T06:45:07;2.50;;;1.30;;
17796;SDS011;55596;53.554;9.916;2023-04-24T06:47:35;2.23;;;1.30;;
17796;SDS011;55596;53.554;9.916;2023-04-24T06:50:05;1.60;;;1.50;;
17796;SDS011;55596;53.554;9.916;2023-04-24T06:52:32;2.30;;;1.50;;
17796;SDS011;55596;53.554;9.916;2023-04-24T06:55:00;3.67;;;1.60;;
17796;SDS011;55596;53.554;9.916;2023-04-24T06:57:28;3.70;;;1.57;;
17796;SDS011;55596;53.554;9.916;2023-04-24T06:59:56;3.43;;;1.53;;
17796;SDS011;55596;53.554;9.916;2023-04-24T07:02:25;1.40;;;1.30;;
17796;SDS011;55596;53.554;9.916;2023-04-24T07:04:53;1.70;;;1.60;;
17796;SDS011;55596;53.554;9.916;2023-04-24T07:07:21;1.70;;;1.50;;
17796;SDS011;55596;53.554;9.916;2023-04-24T07:09:49;2.00;;;1.77;;
17796;SDS011;55596;53.554;9.916;2023-04-24T07:12:16;4.30;;;1.70;;
17796;SDS011;55596;53.554;9.916;2023-04-24T07:14:45;4.87;;;1.97;;
17796;SDS011;55596;53.554;9.916;2023-04-24T07:17:13;4.03;;;1.87;;
17796;SDS011;55596;53.554;9.916;2023-04-24T07:19:40;3.17;;;1.87;;
17796;SDS011;55596;53.554;9.916;2023-04-24T07:22:07;3.93;;;2.00;;
17796;SDS011;55596;53.554;9.916;2023-04-24T07:24:38;2.73;;;1.83;;
17796;SDS011;55596;53.554;9.916;2023-04-24T07:27:05;2.30;;;2.10;;
17796;SDS011;55596;53.554;9.916;2023-04-24T07:29:32;4.83;;;2.40;;
17796;SDS011;55596;53.554;9.916;2023-04-24T07:32:00;4.63;;;2.53;;
17796;SDS011;55596;53.554;9.916;2023-04-24T07:34:28;4.17;;;2.10;;
17796;SDS011;55596;53.554;9.916;2023-04-24T07:36:55;2.70;;;2.13;;
17796;SDS011;55596;53.554;9.916;2023-04-24T07:39:22;3.30;;;2.23;;
17796;SDS011;55596;53.554;9.916;2023-04-24T07:41:52;5.70;;;2.77;;
17796;SDS011;55596;53.554;9.916;2023-04-24T07:44:20;2.80;;;2.60;;
17796;SDS011;55596;53.554;9.916;2023-04-24T07:46:47;4.37;;;2.70;;
17796;SDS011;55596;53.554;9.916;2023-04-24T07:49:14;5.30;;;2.77;;
17796;SDS011;55596;53.554;9.916;2023-04-24T07:51:42;8.03;;;2.93;;
17796;SDS011;55596;53.554;9.916;2023-04-24T07:54:09;3.73;;;2.80;;
17796;SDS011;55596;53.554;9.916;2023-04-24T07:56:36;5.43;;;2.90;;
17796;SDS011;55596;53.554;9.916;2023-04-24T07:59:05;4.03;;;2.53;;
17796;SDS011;55596;53.554;9.916;2023-04-24T08:01:32;2.93;;;2.70;;
17796;SDS011;55596;53.554;9.916;2023-04-24T08:04:00;2.37;;;2.17;;
17796;SDS011;55596;53.554;9.916;2023-04-24T08:06:27;3.93;;;2.70;;
17796;SDS011;55596;53.554;9.916;2023-04-24T08:08:56;3.27;;;2.47;;
17796;SDS011;55596;53.554;9.916;2023-04-24T08:11:24;3.83;;;3.00;;
17796;SDS011;55596;53.554;9.916;2023-04-24T08:13:52;7.67;;;3.93;;
17796;SDS011;55596;53.554;9.916;2023-04-24T08:16:21;3.20;;;2.90;;
17796;SDS011;55596;53.554;9.916;2023-04-24T08:18:49;5.10;;;3.37;;
17796;SDS011;55596;53.554;9.916;2023-04-24T08:21:16;5.37;;;3.30;;
17796;SDS011;55596;53.554;9.916;2023-04-24T08:23:44;3.93;;;3.53;;
17796;SDS011;55596;53.554;9.916;2023-04-24T08:26:11;3.40;;;3.03;;
17796;SDS011;55596;53.554;9.916;2023-04-24T08:28:38;3.93;;;3.50;;
17796;SDS011;55596;53.554;9.916;2023-04-24T08:31:06;4.70;;;3.20;;
17796;SDS011;55596;53.554;9.916;2023-04-24T08:33:35;4.37;;;3.30;;
17796;SDS011;55596;53.554;9.916;2023-04-24T08:36:03;6.67;;;3.40;;
17796;SDS011;55596;53.554;9.916;2023-04-24T08:38:30;3.60;;;3.30;;
17796;SDS011;55596;53.554;9.916;2023-04-24T08:40:58;3.93;;;3.00;;
17796;SDS011;55596;53.554;9.916;2023-04-24T08:43:26;4.13;;;3.40;;
17796;SDS011;55596;53.554;9.916;2023-04-24T08:45:55;4.43;;;4.00;;
17796;SDS011;55596;53.554;9.916;2023-04-24T08:48:22;3.97;;;3.57;;
17796;SDS011;55596;53.554;9.916;2023-04-24T08:50:51;4.10;;;3.70;;
17796;SDS011;55596;53.554;9.916;2023-04-24T08:53:18;4.80;;;3.67;;
17796;SDS011;55596;53.554;9.916;2023-04-24T08:55:46;7.87;;;4.27;;
17796;SDS011;55596;53.554;9.916;2023-04-24T08:58:15;10.20;;;4.10;;
17796;SDS011;55596;53.554;9.916;2023-04-24T09:00:43;8.13;;;3.87;;
17796;SDS011;55596;53.554;9.916;2023-04-24T09:03:13;4.33;;;4.00;;
17796;SDS011;55596;53.554;9.916;2023-04-24T09:05:41;6.13;;;4.33;;
17796;SDS011;55596;53.554;9.916;2023-04-24T09:08:12;3.93;;;3.63;;
17796;SDS011;55596;53.554;9.916;2023-04-24T09:10:40;4.00;;;3.70;;
17796;SDS011;55596;53.554;9.916;2023-04-24T09:13:08;4.63;;;3.70;;
17796;SDS011;55596;53.554;9.916;2023-04-24T09:15:35;5.33;;;3.40;;
17796;SDS011;55596;53.554;9.916;2023-04-24T09:18:03;4.43;;;3.60;;
17796;SDS011;55596;53.554;9.916;2023-04-24T09:20:31;6.70;;;3.87;;
17796;SDS011;55596;53.554;9.916;2023-04-24T09:23:00;5.30;;;3.63;;
17796;SDS011;55596;53.554;9.916;2023-04-24T09:25:32;6.37;;;3.90;;
17796;SDS011;55596;53.554;9.916;2023-04-24T09:28:00;4.40;;;3.80;;
17796;SDS011;55596;53.554;9.916;2023-04-24T09:30:28;4.07;;;3.67;;
17796;SDS011;55596;53.554;9.916;2023-04-24T09:33:09;4.07;;;3.67;;
17796;SDS011;55596;53.554;9.916;2023-04-24T09:35:39;5.23;;;3.87;;
17796;SDS011;55596;53.554;9.916;2023-04-24T09:38:07;4.80;;;4.30;;
17796;SDS011;55596;53.554;9.916;2023-04-24T09:40:36;5.43;;;4.47;;
17796;SDS011;55596;53.554;9.916;2023-04-24T09:43:03;4.47;;;4.00;;
17796;SDS011;55596;53.554;9.916;2023-04-24T09:45:35;5.20;;;4.40;;
17796;SDS011;55596;53.554;9.916;2023-04-24T09:48:03;5.93;;;4.40;;
17796;SDS011;55596;53.554;9.916;2023-04-24T09:50:31;4.73;;;4.17;;
17796;SDS011;55596;53.554;9.916;2023-04-24T09:53:01;4.93;;;4.33;;
17796;SDS011;55596;53.554;9.916;2023-04-24T09:55:28;4.93;;;4.33;;
17796;SDS011;55596;53.554;9.916;2023-04-24T09:57:58;6.00;;;4.70;;
17796;SDS011;55596;53.554;9.916;2023-04-24T10:00:26;5.23;;;4.73;;
17796;SDS011;55596;53.554;9.916;2023-04-24T10:02:54;6.57;;;5.10;;
17796;SDS011;55596;53.554;9.916;2023-04-24T10:05:26;8.97;;;5.87;;
17796;SDS011;55596;53.554;9.916;2023-04-24T10:07:58;9.37;;;5.80;;
17796;SDS011;55596;53.554;9.916;2023-04-24T10:10:25;6.37;;;5.67;;
17796;SDS011;55596;53.554;9.916;2023-04-24T10:12:52;7.53;;;5.87;;
17796;SDS011;55596;53.554;9.916;2023-04-24T10:15:22;7.47;;;6.30;;
17796;SDS011;55596;53.554;9.916;2023-04-24T10:17:50;7.20;;;6.17;;
17796;SDS011;55596;53.554;9.916;2023-04-24T10:20:21;7.13;;;6.30;;
17796;SDS011;55596;53.554;9.916;2023-04-24T10:22:49;8.10;;;6.83;;
17796;SDS011;55596;53.554;9.916;2023-04-24T10:25:18;7.13;;;6.37;;
17796;SDS011;55596;53.554;9.916;2023-04-24T10:27:47;10.53;;;7.20;;
17796;SDS011;55596;53.554;9.916;2023-04-24T10:30:14;9.03;;;7.27;;
17796;SDS011;55596;53.554;9.916;2023-04-24T10:32:43;11.87;;;7.77;;
17796;SDS011;55596;53.554;9.916;2023-04-24T10:35:11;10.10;;;7.70;;
17796;SDS011;55596;53.554;9.916;2023-04-24T10:37:41;9.67;;;8.40;;
17796;SDS011;55596;53.554;9.916;2023-04-24T10:40:09;9.43;;;7.77;;
17796;SDS011;55596;53.554;9.916;2023-04-24T10:42:39;10.37;;;8.60;;
17796;SDS011;55596;53.554;9.916;2023-04-24T10:45:15;11.73;;;8.30;;
17796;SDS011;55596;53.554;9.916;2023-04-24T10:47:51;8.70;;;7.90;;
17796;SDS011;55596;53.554;9.916;2023-04-24T10:50:19;11.40;;;7.70;;
17796;SDS011;55596;53.554;9.916;2023-04-24T10:52:47;8.37;;;7.03;;
17796;SDS011;55596;53.554;9.916;2023-04-24T10:55:16;9.03;;;6.60;;
17796;SDS011;55596;53.554;9.916;2023-04-24T10:58:02;7.77;;;7.00;;
17796;SDS011;55596;53.554;9.916;2023-04-24T11:00:30;9.33;;;7.17;;
17796;SDS011;55596;53.554;9.916;2023-04-24T11:02:59;10.67;;;7.30;;
17796;SDS011;55596;53.554;9.916;2023-04-24T11:08:21;8.37;;;7.00;;
17796;SDS011;55596;53.554;9.916;2023-04-24T11:10:54;7.93;;;7.13;;
17796;SDS011;55596;53.554;9.916;2023-04-24T11:13:22;7.97;;;7.17;;
17796;SDS011;55596;53.554;9.916;2023-04-24T11:18:38;10.13;;;7.43;;
17796;SDS011;55596;53.554;9.916;2023-04-24T11:21:10;9.10;;;6.87;;
17796;SDS011;55596;53.554;9.916;2023-04-24T11:23:38;8.90;;;7.10;;
17796;SDS011;55596;53.554;9.916;2023-04-24T11:26:12;9.03;;;6.77;;
17796;SDS011;55596;53.554;9.916;2023-04-24T11:28:48;6.83;;;6.10;;
17796;SDS011;55596;53.554;9.916;2023-04-24T11:31:33;8.60;;;6.63;;
17796;SDS011;55596;53.554;9.916;2023-04-24T11:34:07;8.37;;;6.70;;
17796;SDS011;55596;53.554;9.916;2023-04-24T11:36:34;7.10;;;6.40;;
17796;SDS011;55596;53.554;9.916;2023-04-24T11:39:02;7.57;;;6.40;;
17796;SDS011;55596;53.554;9.916;2023-04-24T11:41:29;8.57;;;6.90;;
17796;SDS011;55596;53.554;9.916;2023-04-24T11:43:57;7.50;;;6.37;;
17796;SDS011;55596;53.554;9.916;2023-04-24T11:46:27;7.70;;;6.90;;
17796;SDS011;55596;53.554;9.916;2023-04-24T11:48:55;8.33;;;7.13;;
17796;SDS011;55596;53.554;9.916;2023-04-24T11:51:24;14.87;;;7.23;;
17796;SDS011;55596;53.554;9.916;2023-04-24T11:53:52;7.30;;;6.60;;
17796;SDS011;55596;53.554;9.916;2023-04-24T11:56:21;7.87;;;6.13;;
17796;SDS011;55596;53.554;9.916;2023-04-24T11:58:48;7.20;;;5.83;;
17796;SDS011;55596;53.554;9.916;2023-04-24T12:01:15;7.27;;;5.40;;
17796;SDS011;55596;53.554;9.916;2023-04-24T12:03:46;6.23;;;5.10;;
17796;SDS011;55596;53.554;9.916;2023-04-24T12:06:16;6.80;;;5.30;;
17796;SDS011;55596;53.554;9.916;2023-04-24T12:08:49;5.37;;;4.80;;
17796;SDS011;55596;53.554;9.916;2023-04-24T12:11:20;6.80;;;4.83;;
17796;SDS011;55596;53.554;9.916;2023-04-24T12:13:47;6.50;;;5.73;;
17796;SDS011;55596;53.554;9.916;2023-04-24T12:16:19;7.03;;;5.30;;
17796;SDS011;55596;53.554;9.916;2023-04-24T12:18:46;9.40;;;5.43;;
17796;SDS011;55596;53.554;9.916;2023-04-24T12:21:17;7.03;;;5.20;;
17796;SDS011;55596;53.554;9.916;2023-04-24T12:23:47;5.50;;;4.77;;
17796;SDS011;55596;53.554;9.916;2023-04-24T12:26:17;10.37;;;5.90;;
17796;SDS011;55596;53.554;9.916;2023-04-24T12:28:47;6.43;;;5.40;;
17796;SDS011;55596;53.554;9.916;2023-04-24T12:31:15;10.43;;;5.53;;
17796;SDS011;55596;53.554;9.916;2023-04-24T12:33:44;7.20;;;5.60;;
17796;SDS011;55596;53.554;9.916;2023-04-24T12:36:11;5.87;;;5.10;;
17796;SDS011;55596;53.554;9.916;2023-04-24T12:38:39;6.50;;;5.50;;
17796;SDS011;55596;53.554;9.916;2023-04-24T12:41:09;7.40;;;5.10;;
17796;SDS011;55596;53.554;9.916;2023-04-24T12:43:52;6.47;;;5.17;;
17796;SDS011;55596;53.554;9.916;2023-04-24T12:46:25;6.07;;;5.47;;
17796;SDS011;55596;53.554;9.916;2023-04-24T12:48:52;5.90;;;5.30;;
17796;SDS011;55596;53.554;9.916;2023-04-24T12:51:21;6.03;;;5.47;;
17796;SDS011;55596;53.554;9.916;2023-04-24T12:53:48;6.43;;;5.70;;
17796;SDS011;55596;53.554;9.916;2023-04-24T12:56:15;6.47;;;5.73;;
17796;SDS011;55596;53.554;9.916;2023-04-24T12:58:43;5.70;;;5.20;;
17796;SDS011;55596;53.554;9.916;2023-04-24T13:01:15;5.87;;;5.27;;
17796;SDS011;55596;53.554;9.916;2023-04-24T13:03:42;5.27;;;4.87;;
17796;SDS011;55596;53.554;9.916;2023-04-24T13:06:09;5.67;;;5.03;;
17796;SDS011;55596;53.554;9.916;2023-04-24T13:08:37;5.73;;;4.93;;
17796;SDS011;55596;53.554;9.916;2023-04-24T13:11:04;5.40;;;4.90;;
17796;SDS011;55596;53.554;9.916;2023-04-24T13:13:31;5.23;;;4.63;;
17796;SDS011;55596;53.554;9.916;2023-04-24T13:15:58;5.03;;;4.27;;
17796;SDS011;55596;53.554;9.916;2023-04-24T13:18:27;5.03;;;4.37;;
17796;SDS011;55596;53.554;9.916;2023-04-24T13:20:55;6.23;;;4.20;;
17796;SDS011;55596;53.554;9.916;2023-04-24T13:23:22;4.77;;;4.37;;
17796;SDS011;55596;53.554;9.916;2023-04-24T13:25:49;6.30;;;3.83;;
17796;SDS011;55596;53.554;9.916;2023-04-24T13:28:17;4.83;;;4.07;;
17796;SDS011;55596;53.554;9.916;2023-04-24T13:30:44;4.63;;;4.17;;
17796;SDS011;55596;53.554;9.916;2023-04-24T13:33:11;4.43;;;4.00;;
17796;SDS011;55596;53.554;9.916;2023-04-24T13:35:40;4.27;;;3.87;;
17796;SDS011;55596;53.554;9.916;2023-04-24T13:38:08;4.37;;;3.97;;
17796;SDS011;55596;53.554;9.916;2023-04-24T13:40:36;4.47;;;4.00;;
17796;SDS011;55596;53.554;9.916;2023-04-24T13:43:03;5.10;;;4.60;;
17796;SDS011;55596;53.554;9.916;2023-04-24T13:45:31;4.80;;;4.30;;
17796;SDS011;55596;53.554;9.916;2023-04-24T13:47:58;4.17;;;3.87;;
17796;SDS011;55596;53.554;9.916;2023-04-24T13:50:28;7.90;;;4.00;;
17796;SDS011;55596;53.554;9.916;2023-04-24T13:52:56;4.13;;;3.83;;
17796;SDS011;55596;53.554;9.916;2023-04-24T13:55:25;4.67;;;3.70;;
17796;SDS011;55596;53.554;9.916;2023-04-24T13:57:52;4.07;;;3.77;;
17796;SDS011;55596;53.554;9.916;2023-04-24T14:00:20;6.13;;;4.17;;
17796;SDS011;55596;53.554;9.916;2023-04-24T14:02:47;4.87;;;3.60;;
17796;SDS011;55596;53.554;9.916;2023-04-24T14:05:15;3.80;;;3.50;;
17796;SDS011;55596;53.554;9.916;2023-04-24T14:07:43;3.67;;;3.27;;
17796;SDS011;55596;53.554;9.916;2023-04-24T14:10:12;3.93;;;3.63;;
17796;SDS011;55596;53.554;9.916;2023-04-24T14:12:39;3.63;;;3.33;;
17796;SDS011;55596;53.554;9.916;2023-04-24T14:15:07;4.63;;;3.87;;
17796;SDS011;55596;53.554;9.916;2023-04-24T14:17:35;4.47;;;3.80;;
17796;SDS011;55596;53.554;9.916;2023-04-24T14:20:03;4.00;;;3.70;;
17796;SDS011;55596;53.554;9.916;2023-04-24T14:22:32;4.40;;;4.00;;
17796;SDS011;55596;53.554;9.916;2023-04-24T14:24:59;5.00;;;4.53;;
17796;SDS011;55596;53.554;9.916;2023-04-24T14:27:28;5.70;;;4.93;;
17796;SDS011;55596;53.554;9.916;2023-04-24T14:29:55;6.33;;;5.33;;
17796;SDS011;55596;53.554;9.916;2023-04-24T14:32:23;14.17;;;6.17;;
17796;SDS011;55596;53.554;9.916;2023-04-24T14:34:50;8.37;;;7.37;;
17796;SDS011;55596;53.554;9.916;2023-04-24T14:37:18;8.67;;;7.97;;
17796;SDS011;55596;53.554;9.916;2023-04-24T14:39:45;9.63;;;8.73;;
17796;SDS011;55596;53.554;9.916;2023-04-24T14:42:13;10.27;;;9.27;;
17796;SDS011;55596;53.554;9.916;2023-04-24T14:44:43;11.83;;;10.77;;
17796;SDS011;55596;53.554;9.916;2023-04-24T14:47:10;12.97;;;11.73;;
17796;SDS011;55596;53.554;9.916;2023-04-24T14:49:38;13.43;;;12.03;;
17796;SDS011;55596;53.554;9.916;2023-04-24T14:52:05;14.57;;;13.27;;
17796;SDS011;55596;53.554;9.916;2023-04-24T14:54:32;15.50;;;13.90;;
17796;SDS011;55596;53.554;9.916;2023-04-24T14:57:00;19.07;;;15.00;;